sensor_id;sensor_type;location;lat;lon;timestamp;pressure;altitude;pressure_sealevel;temperature;humidity
64053;BME280;50299;49.524;8.536;2023-04-05T00:02:11;101218.56;;;-3.77;65.45
64053;BME280;50299;49.524;8.536;2023-04-05T00:04:39;101218.31;;;-4.27;63.53
64053;BME280;50299;49.524;8.536;2023-04-05T00:07:17;101216.72;;;-4.48;64.40
64053;BME280;50299;49.524;8.536;2023-04-05T00:09:44;101221.72;;;-4.65;67.89
64053;BME280;50299;49.524;8.536;2023-04-05T00:12:11;101218.03;;;-3.54;87.54
64053;BME280;50299;49.524;8.536;2023-04-05T00:14:37;101208.56;;;-2.57;94.16
64053;BME280;50299;49.524;8.536;2023-04-05T00:17:04;101212.22;;;-2.94;70.10
64053;BME280;50299;49.524;8.536;2023-04-05T00:19:31;101209.81;;;-3.72;65.10
64053;BME280;50299;49.524;8.536;2023-04-05T00:21:59;101205.13;;;-3.97;66.67
64053;BME280;50299;49.524;8.536;2023-04-05T00:24:25;101204.78;;;-4.20;66.36
64053;BME280;50299;49.524;8.536;2023-04-05T00:26:54;101204.19;;;-4.29;69.35
64053;BME280;50299;49.524;8.536;2023-04-05T00:29:22;101199.88;;;-4.50;66.91
64053;BME280;50299;49.524;8.536;2023-04-05T00:31:48;101200.13;;;-4.71;67.40
64053;BME280;50299;49.524;8.536;2023-04-05T00:34:15;101203.66;;;-4.71;70.52
64053;BME280;50299;49.524;8.536;2023-04-05T00:36:41;101197.19;;;-4.50;74.17
64053;BME280;50299;49.524;8.536;2023-04-05T00:39:08;101197.81;;;-4.55;69.09
64053;BME280;50299;49.524;8.536;2023-04-05T00:41:34;101195.13;;;-4.74;67.61
64053;BME280;50299;49.524;8.536;2023-04-05T00:44:02;101192.88;;;-5.04;68.13
64053;BME280;50299;49.524;8.536;2023-04-05T00:46:33;101192.88;;;-4.97;71.59
64053;BME280;50299;49.524;8.536;2023-04-05T00:48:59;101189.97;;;-4.83;72.58
64053;BME280;50299;49.524;8.536;2023-04-05T00:51:26;101184.16;;;-4.99;68.67
64053;BME280;50299;49.524;8.536;2023-04-05T00:53:52;101186.22;;;-5.08;68.69
64053;BME280;50299;49.524;8.536;2023-04-05T00:56:19;101187.91;;;-5.27;68.92
64053;BME280;50299;49.524;8.536;2023-04-05T00:58:46;101188.09;;;-5.22;71.41
64053;BME280;50299;49.524;8.536;2023-04-05T01:01:20;101194.97;;;-5.06;71.98
64053;BME280;50299;49.524;8.536;2023-04-05T01:03:54;101190.81;;;-5.02;70.52
64053;BME280;50299;49.524;8.536;2023-04-05T01:07:24;101189.53;;;-4.86;72.26
64053;BME280;50299;49.524;8.536;2023-04-05T01:09:52;101182.91;;;-4.77;73.93
64053;BME280;50299;49.524;8.536;2023-04-05T01:12:23;101178.31;;;-4.70;70.68
64053;BME280;50299;49.524;8.536;2023-04-05T01:14:52;101182.91;;;-4.84;68.48
64053;BME280;50299;49.524;8.536;2023-04-05T01:17:21;101180.00;;;-4.95;76.03
64053;BME280;50299;49.524;8.536;2023-04-05T01:19:56;101178.69;;;-4.40;81.60
64053;BME280;50299;49.524;8.536;2023-04-05T01:31:00;101171.59;;;-3.13;68.47
64053;BME280;50299;49.524;8.536;2023-04-05T01:36:29;101169.94;;;-3.45;68.79
64053;BME280;50299;49.524;8.536;2023-04-05T01:38:56;101161.34;;;-3.36;75.42
64053;BME280;50299;49.524;8.536;2023-04-05T01:41:23;101160.53;;;-3.11;79.83
64053;BME280;50299;49.524;8.536;2023-04-05T01:43:51;101158.56;;;-2.54;84.18
64053;BME280;50299;49.524;8.536;2023-04-05T01:46:17;101155.63;;;-2.96;66.74
64053;BME280;50299;49.524;8.536;2023-04-05T01:48:44;101163.41;;;-3.31;69.54
64053;BME280;50299;49.524;8.536;2023-04-05T01:51:10;101156.94;;;-3.30;75.78
64053;BME280;50299;49.524;8.536;2023-04-05T01:53:37;101156.22;;;-3.44;66.11
64053;BME280;50299;49.524;8.536;2023-04-05T01:56:03;101149.78;;;-3.81;66.98
64053;BME280;50299;49.524;8.536;2023-04-05T01:58:30;101149.78;;;-3.81;71.23
64053;BME280;50299;49.524;8.536;2023-04-05T02:00:56;101145.56;;;-2.89;88.57
64053;BME280;50299;49.524;8.536;2023-04-05T02:03:23;101141.19;;;-2.10;93.49
64053;BME280;50299;49.524;8.536;2023-04-05T02:05:50;101153.53;;;-1.54;96.26
64053;BME280;50299;49.524;8.536;2023-04-05T02:08:17;101151.03;;;-0.19;100.00
64053;BME280;50299;49.524;8.536;2023-04-05T02:10:44;101149.22;;;-0.54;91.20
64053;BME280;50299;49.524;8.536;2023-04-05T02:13:10;101153.88;;;-1.92;67.17
64053;BME280;50299;49.524;8.536;2023-04-05T02:15:39;101152.13;;;-2.78;71.63
64053;BME280;50299;49.524;8.536;2023-04-05T02:18:05;101142.03;;;-3.14;71.68
64053;BME280;50299;49.524;8.536;2023-04-05T02:20:33;101143.56;;;-3.82;66.69
64053;BME280;50299;49.524;8.536;2023-04-05T02:23:01;101148.38;;;-4.35;68.06
64053;BME280;50299;49.524;8.536;2023-04-05T02:25:27;101146.94;;;-4.51;69.76
64053;BME280;50299;49.524;8.536;2023-04-05T02:27:54;101146.31;;;-4.40;74.66
64053;BME280;50299;49.524;8.536;2023-04-05T02:30:20;101153.81;;;-4.62;68.33
64053;BME280;50299;49.524;8.536;2023-04-05T02:32:46;101146.38;;;-4.73;72.49
64053;BME280;50299;49.524;8.536;2023-04-05T02:35:13;101141.63;;;-4.84;69.55
64053;BME280;50299;49.524;8.536;2023-04-05T02:37:39;101151.38;;;-4.77;67.10
64053;BME280;50299;49.524;8.536;2023-04-05T02:40:07;101151.97;;;-4.68;69.74
64053;BME280;50299;49.524;8.536;2023-04-05T02:42:37;101147.41;;;-4.67;67.88
64053;BME280;50299;49.524;8.536;2023-04-05T02:45:03;101147.44;;;-4.87;66.11
64053;BME280;50299;49.524;8.536;2023-04-05T02:47:31;101146.00;;;-5.43;67.44
64053;BME280;50299;49.524;8.536;2023-04-05T02:49:57;101142.25;;;-5.42;70.57
64053;BME280;50299;49.524;8.536;2023-04-05T02:52:24;101139.34;;;-5.01;75.28
64053;BME280;50299;49.524;8.536;2023-04-05T02:54:50;101143.47;;;-4.65;81.27
64053;BME280;50299;49.524;8.536;2023-04-05T02:57:17;101131.19;;;-4.54;74.95
64053;BME280;50299;49.524;8.536;2023-04-05T02:59:43;101125.78;;;-4.47;70.32
64053;BME280;50299;49.524;8.536;2023-04-05T03:02:10;101136.78;;;-4.56;74.96
64053;BME280;50299;49.524;8.536;2023-04-05T03:04:36;101136.16;;;-4.51;69.51
64053;BME280;50299;49.524;8.536;2023-04-05T03:07:04;101135.94;;;-4.49;65.93
64053;BME280;50299;49.524;8.536;2023-04-05T03:09:30;101133.81;;;-4.34;67.59
64053;BME280;50299;49.524;8.536;2023-04-05T03:12:02;101130.53;;;-4.49;63.70
64053;BME280;50299;49.524;8.536;2023-04-05T03:14:29;101133.50;;;-4.64;64.09
64053;BME280;50299;49.524;8.536;2023-04-05T03:16:56;101135.56;;;-4.66;64.23
64053;BME280;50299;49.524;8.536;2023-04-05T03:19:24;101136.38;;;-4.59;66.00
64053;BME280;50299;49.524;8.536;2023-04-05T03:21:52;101135.00;;;-5.02;67.07
64053;BME280;50299;49.524;8.536;2023-04-05T03:24:18;101140.19;;;-4.93;67.17
64053;BME280;50299;49.524;8.536;2023-04-05T03:26:46;101139.34;;;-4.81;67.10
64053;BME280;50299;49.524;8.536;2023-04-05T03:29:13;101139.31;;;-4.61;70.68
64053;BME280;50299;49.524;8.536;2023-04-05T03:31:40;101137.63;;;-4.55;64.52
64053;BME280;50299;49.524;8.536;2023-04-05T03:34:07;101133.13;;;-4.94;70.13
64053;BME280;50299;49.524;8.536;2023-04-05T03:36:34;101122.28;;;-4.68;78.31
64053;BME280;50299;49.524;8.536;2023-04-05T03:39:08;101125.94;;;-4.36;71.19
64053;BME280;50299;49.524;8.536;2023-04-05T03:41:39;101131.50;;;-4.24;63.79
64053;BME280;50299;49.524;8.536;2023-04-05T03:44:06;101132.53;;;-4.25;63.06
64053;BME280;50299;49.524;8.536;2023-04-05T03:46:33;101130.16;;;-4.60;61.49
64053;BME280;50299;49.524;8.536;2023-04-05T03:49:01;101118.94;;;-4.57;69.21
64053;BME280;50299;49.524;8.536;2023-04-05T03:51:28;101106.97;;;-4.22;79.58
64053;BME280;50299;49.524;8.536;2023-04-05T03:53:54;101107.88;;;-4.35;71.70
64053;BME280;50299;49.524;8.536;2023-04-05T03:56:21;101114.44;;;-4.76;66.90
64053;BME280;50299;49.524;8.536;2023-04-05T03:58:48;101124.22;;;-5.21;68.10
64053;BME280;50299;49.524;8.536;2023-04-05T04:01:14;101118.38;;;-5.65;68.84
64053;BME280;50299;49.524;8.536;2023-04-05T04:03:41;101118.44;;;-5.18;76.01
64053;BME280;50299;49.524;8.536;2023-04-05T04:06:08;101119.63;;;-4.94;71.53
64053;BME280;50299;49.524;8.536;2023-04-05T04:08:34;101117.97;;;-4.95;71.45
64053;BME280;50299;49.524;8.536;2023-04-05T04:11:01;101112.41;;;-4.94;68.89
64053;BME280;50299;49.524;8.536;2023-04-05T04:13:27;101115.06;;;-4.87;65.68
64053;BME280;50299;49.524;8.536;2023-04-05T04:15:54;101112.59;;;-4.95;68.75
64053;BME280;50299;49.524;8.536;2023-04-05T04:18:20;101115.47;;;-4.90;65.92
64053;BME280;50299;49.524;8.536;2023-04-05T04:20:49;101119.41;;;-4.80;67.82
64053;BME280;50299;49.524;8.536;2023-04-05T04:23:17;101100.53;;;-4.73;70.14
64053;BME280;50299;49.524;8.536;2023-04-05T04:25:43;101099.25;;;-4.57;69.19
64053;BME280;50299;49.524;8.536;2023-04-05T04:28:11;101100.66;;;-4.55;64.50
64053;BME280;50299;49.524;8.536;2023-04-05T04:30:38;101105.41;;;-4.50;65.61
64053;BME280;50299;49.524;8.536;2023-04-05T04:33:04;101103.78;;;-4.51;65.19
64053;BME280;50299;49.524;8.536;2023-04-05T04:35:34;101102.41;;;-4.73;66.10
64053;BME280;50299;49.524;8.536;2023-04-05T04:38:04;101102.94;;;-4.58;73.12
64053;BME280;50299;49.524;8.536;2023-04-05T04:40:37;101098.81;;;-4.09;84.30
64053;BME280;50299;49.524;8.536;2023-04-05T04:43:09;101099.38;;;-3.94;83.68
64053;BME280;50299;49.524;8.536;2023-04-05T04:45:39;101092.88;;;-3.86;85.35
64053;BME280;50299;49.524;8.536;2023-04-05T04:48:07;101100.09;;;-2.98;94.79
64053;BME280;50299;49.524;8.536;2023-04-05T04:50:34;101100.34;;;-2.63;94.92
64053;BME280;50299;49.524;8.536;2023-04-05T04:53:03;101107.19;;;-2.61;90.94
64053;BME280;50299;49.524;8.536;2023-04-05T04:55:30;101107.03;;;-2.84;86.81
64053;BME280;50299;49.524;8.536;2023-04-05T04:57:58;101109.97;;;-3.11;83.46
64053;BME280;50299;49.524;8.536;2023-04-05T05:00:25;101116.63;;;-3.38;81.84
64053;BME280;50299;49.524;8.536;2023-04-05T05:02:51;101114.41;;;-3.73;79.04
64053;BME280;50299;49.524;8.536;2023-04-05T05:05:18;101117.47;;;-4.01;78.93
64053;BME280;50299;49.524;8.536;2023-04-05T05:07:48;101113.00;;;-3.51;89.55
64053;BME280;50299;49.524;8.536;2023-04-05T05:10:35;101110.31;;;-3.00;91.89
64053;BME280;50299;49.524;8.536;2023-04-05T05:13:15;101109.44;;;-3.19;87.04
64053;BME280;50299;49.524;8.536;2023-04-05T05:15:42;101109.66;;;-3.46;84.58
64053;BME280;50299;49.524;8.536;2023-04-05T05:18:13;101115.66;;;-3.44;84.53
64053;BME280;50299;49.524;8.536;2023-04-05T05:21:09;101117.25;;;-3.36;84.51
64053;BME280;50299;49.524;8.536;2023-04-05T05:23:41;101114.84;;;-3.19;85.89
64053;BME280;50299;49.524;8.536;2023-04-05T05:26:11;101117.78;;;-2.78;89.01
64053;BME280;50299;49.524;8.536;2023-04-05T05:28:39;101118.34;;;-2.50;88.40
64053;BME280;50299;49.524;8.536;2023-04-05T05:31:10;101116.38;;;-2.43;86.88
64053;BME280;50299;49.524;8.536;2023-04-05T05:33:42;101122.59;;;-2.61;83.15
64053;BME280;50299;49.524;8.536;2023-04-05T05:36:13;101119.75;;;-2.66;83.76
64053;BME280;50299;49.524;8.536;2023-04-05T05:38:39;101115.78;;;-3.07;83.15
64053;BME280;50299;49.524;8.536;2023-04-05T05:41:08;101115.19;;;-3.66;84.26
64053;BME280;50299;49.524;8.536;2023-04-05T05:43:34;101121.50;;;-3.79;84.81
64053;BME280;50299;49.524;8.536;2023-04-05T05:46:01;101119.19;;;-3.43;88.97
64053;BME280;50299;49.524;8.536;2023-04-05T05:48:32;101122.31;;;-2.53;95.80
64053;BME280;50299;49.524;8.536;2023-04-05T05:51:02;101126.28;;;-2.19;93.96
64053;BME280;50299;49.524;8.536;2023-04-05T05:53:39;101119.88;;;-1.22;100.00
64053;BME280;50299;49.524;8.536;2023-04-05T05:56:06;101130.09;;;-0.83;100.00
64053;BME280;50299;49.524;8.536;2023-04-05T05:58:38;101127.25;;;-0.64;97.76
64053;BME280;50299;49.524;8.536;2023-04-05T06:01:06;101140.53;;;0.13;100.00
64053;BME280;50299;49.524;8.536;2023-04-05T06:03:33;101139.38;;;0.37;98.86
64053;BME280;50299;49.524;8.536;2023-04-05T06:06:05;101136.09;;;0.69;99.83
64053;BME280;50299;49.524;8.536;2023-04-05T06:08:33;101140.22;;;1.22;100.00
64053;BME280;50299;49.524;8.536;2023-04-05T06:11:00;101139.13;;;2.01;100.00
64053;BME280;50299;49.524;8.536;2023-04-05T06:13:29;101136.16;;;2.29;100.00
64053;BME280;50299;49.524;8.536;2023-04-05T06:16:00;101141.69;;;2.34;100.00
64053;BME280;50299;49.524;8.536;2023-04-05T06:18:31;101133.66;;;2.82;100.00
64053;BME280;50299;49.524;8.536;2023-04-05T06:21:20;101142.00;;;2.65;96.90
64053;BME280;50299;49.524;8.536;2023-04-05T06:24:05;101144.97;;;2.09;89.71
64053;BME280;50299;49.524;8.536;2023-04-05T06:26:33;101137.94;;;1.91;93.16
64053;BME280;50299;49.524;8.536;2023-04-05T06:29:06;101140.19;;;2.49;100.00
64053;BME280;50299;49.524;8.536;2023-04-05T06:31:36;101141.03;;;2.81;100.00
64053;BME280;50299;49.524;8.536;2023-04-05T06:34:09;101137.88;;;3.32;100.00
64053;BME280;50299;49.524;8.536;2023-04-05T06:36:41;101147.66;;;3.65;100.00
64053;BME280;50299;49.524;8.536;2023-04-05T06:39:08;101139.91;;;4.09;100.00
64053;BME280;50299;49.524;8.536;2023-04-05T06:41:35;101142.16;;;4.28;100.00
64053;BME280;50299;49.524;8.536;2023-04-05T06:44:01;101150.44;;;3.70;88.68
64053;BME280;50299;49.524;8.536;2023-04-05T06:46:28;101139.91;;;3.47;96.37
64053;BME280;50299;49.524;8.536;2023-04-05T06:48:54;101132.50;;;3.95;100.00
64053;BME280;50299;49.524;8.536;2023-04-05T06:51:21;101133.69;;;4.24;100.00
64053;BME280;50299;49.524;8.536;2023-04-05T06:53:47;101132.91;;;4.44;100.00
64053;BME280;50299;49.524;8.536;2023-04-05T06:56:13;101145.22;;;4.47;97.62
64053;BME280;50299;49.524;8.536;2023-04-05T06:58:40;101147.34;;;3.56;89.21
64053;BME280;50299;49.524;8.536;2023-04-05T07:01:07;101145.63;;;3.08;86.17
64053;BME280;50299;49.524;8.536;2023-04-05T07:03:36;101135.66;;;2.91;90.21
64053;BME280;50299;49.524;8.536;2023-04-05T07:06:02;101144.97;;;3.70;99.83
64053;BME280;50299;49.524;8.536;2023-04-05T07:08:31;101141.13;;;4.49;100.00
64053;BME280;50299;49.524;8.536;2023-04-05T07:10:58;101140.09;;;4.86;100.00
64053;BME280;50299;49.524;8.536;2023-04-05T07:13:25;101146.53;;;4.29;92.90
64053;BME280;50299;49.524;8.536;2023-04-05T07:15:58;101134.56;;;4.76;100.00
64053;BME280;50299;49.524;8.536;2023-04-05T07:18:30;101143.53;;;4.25;89.19
64053;BME280;50299;49.524;8.536;2023-04-05T07:20:57;101140.75;;;4.15;90.68
64053;BME280;50299;49.524;8.536;2023-04-05T07:23:25;101130.69;;;4.36;95.95
64053;BME280;50299;49.524;8.536;2023-04-05T07:26:02;101146.41;;;3.93;82.29
64053;BME280;50299;49.524;8.536;2023-04-05T07:28:34;101148.69;;;3.54;84.27
64053;BME280;50299;49.524;8.536;2023-04-05T07:31:02;101141.00;;;3.08;82.37
64053;BME280;50299;49.524;8.536;2023-04-05T07:33:29;101137.72;;;3.11;87.54
64053;BME280;50299;49.524;8.536;2023-04-05T07:35:56;101139.25;;;3.82;88.67
64053;BME280;50299;49.524;8.536;2023-04-05T07:38:25;101136.66;;;4.17;61.70
64053;BME280;50299;49.524;8.536;2023-04-05T07:40:53;101133.03;;;3.97;71.25
64053;BME280;50299;49.524;8.536;2023-04-05T07:43:19;101125.75;;;4.33;63.88
64053;BME280;50299;49.524;8.536;2023-04-05T07:45:49;101126.06;;;4.62;81.91
64053;BME280;50299;49.524;8.536;2023-04-05T07:48:19;101124.94;;;4.37;68.03
64053;BME280;50299;49.524;8.536;2023-04-05T07:50:45;101132.91;;;4.80;66.55
64053;BME280;50299;49.524;8.536;2023-04-05T07:53:13;101119.22;;;4.80;47.93
64053;BME280;50299;49.524;8.536;2023-04-05T07:55:40;101115.66;;;4.79;56.73
64053;BME280;50299;49.524;8.536;2023-04-05T07:58:08;101129.63;;;4.67;57.66
64053;BME280;50299;49.524;8.536;2023-04-05T08:00:38;101132.38;;;4.93;56.41
64053;BME280;50299;49.524;8.536;2023-04-05T08:03:10;101133.78;;;4.96;62.29
64053;BME280;50299;49.524;8.536;2023-04-05T08:05:39;101137.31;;;5.22;61.95
64053;BME280;50299;49.524;8.536;2023-04-05T08:08:06;101138.06;;;5.58;62.66
64053;BME280;50299;49.524;8.536;2023-04-05T08:10:39;101136.72;;;6.15;64.29
64053;BME280;50299;49.524;8.536;2023-04-05T08:13:09;101134.34;;;5.98;57.34
64053;BME280;50299;49.524;8.536;2023-04-05T08:15:35;101134.28;;;6.08;47.39
64053;BME280;50299;49.524;8.536;2023-04-05T08:18:02;101132.09;;;6.60;69.50
64053;BME280;50299;49.524;8.536;2023-04-05T08:20:31;101131.72;;;7.06;57.00
64053;BME280;50299;49.524;8.536;2023-04-05T08:23:04;101131.00;;;7.48;60.31
64053;BME280;50299;49.524;8.536;2023-04-05T08:25:31;101134.19;;;7.36;59.00
64053;BME280;50299;49.524;8.536;2023-04-05T08:27:57;101127.44;;;7.48;48.76
64053;BME280;50299;49.524;8.536;2023-04-05T08:30:33;101127.75;;;7.46;46.83
64053;BME280;50299;49.524;8.536;2023-04-05T08:33:00;101122.13;;;7.32;38.05
64053;BME280;50299;49.524;8.536;2023-04-05T08:35:30;101119.28;;;7.13;47.74
64053;BME280;50299;49.524;8.536;2023-04-05T08:37:57;101115.56;;;7.28;52.77
64053;BME280;50299;49.524;8.536;2023-04-05T08:40:46;101123.03;;;7.76;44.82
64053;BME280;50299;49.524;8.536;2023-04-05T08:46:12;101122.78;;;6.56;36.04
64053;BME280;50299;49.524;8.536;2023-04-05T08:48:39;101123.69;;;6.80;45.43
64053;BME280;50299;49.524;8.536;2023-04-05T08:51:07;101116.25;;;6.47;34.09
64053;BME280;50299;49.524;8.536;2023-04-05T08:53:36;101118.28;;;5.66;37.52
64053;BME280;50299;49.524;8.536;2023-04-05T08:56:03;101118.66;;;6.04;47.70
64053;BME280;50299;49.524;8.536;2023-04-05T08:58:34;101124.91;;;6.64;50.83
64053;BME280;50299;49.524;8.536;2023-04-05T09:01:03;101114.06;;;6.83;41.59
64053;BME280;50299;49.524;8.536;2023-04-05T09:03:39;101116.00;;;7.11;39.44
64053;BME280;50299;49.524;8.536;2023-04-05T09:06:11;101119.13;;;6.71;39.83
64053;BME280;50299;49.524;8.536;2023-04-05T09:08:38;101109.47;;;6.34;35.55
64053;BME280;50299;49.524;8.536;2023-04-05T09:11:16;101115.75;;;6.39;38.48
64053;BME280;50299;49.524;8.536;2023-04-05T09:13:46;101113.31;;;6.72;39.21
64053;BME280;50299;49.524;8.536;2023-04-05T09:16:18;101117.53;;;6.94;54.84
64053;BME280;50299;49.524;8.536;2023-04-05T09:18:47;101109.56;;;7.50;48.26
64053;BME280;50299;49.524;8.536;2023-04-05T09:21:17;101121.25;;;7.85;44.79
64053;BME280;50299;49.524;8.536;2023-04-05T09:23:51;101116.13;;;7.78;39.94
64053;BME280;50299;49.524;8.536;2023-04-05T09:26:21;101105.91;;;8.03;49.10
64053;BME280;50299;49.524;8.536;2023-04-05T09:28:51;101105.16;;;8.16;46.61
64053;BME280;50299;49.524;8.536;2023-04-05T09:31:39;101106.66;;;8.27;40.00
64053;BME280;50299;49.524;8.536;2023-04-05T09:34:21;101097.66;;;8.41;44.37
64053;BME280;50299;49.524;8.536;2023-04-05T09:36:58;101102.50;;;8.68;34.99
64053;BME280;50299;49.524;8.536;2023-04-05T09:39:30;101095.16;;;9.09;49.58
64053;BME280;50299;49.524;8.536;2023-04-05T09:42:09;101099.03;;;9.08;41.66
64053;BME280;50299;49.524;8.536;2023-04-05T09:45:02;101096.22;;;9.27;49.73
64053;BME280;50299;49.524;8.536;2023-04-05T09:47:32;101087.72;;;9.10;30.90
64053;BME280;50299;49.524;8.536;2023-04-05T09:50:16;101085.38;;;8.52;33.20
64053;BME280;50299;49.524;8.536;2023-04-05T09:52:51;101089.63;;;8.44;42.73
64053;BME280;50299;49.524;8.536;2023-04-05T09:55:35;101089.00;;;8.66;49.13
64053;BME280;50299;49.524;8.536;2023-04-05T09:58:02;101092.34;;;8.82;49.86
64053;BME280;50299;49.524;8.536;2023-04-05T10:00:35;101084.84;;;8.69;41.71
64053;BME280;50299;49.524;8.536;2023-04-05T10:03:04;101084.91;;;8.96;44.78
64053;BME280;50299;49.524;8.536;2023-04-05T10:05:31;101089.88;;;9.41;38.68
64053;BME280;50299;49.524;8.536;2023-04-05T10:07:58;101085.50;;;9.81;36.19
64053;BME280;50299;49.524;8.536;2023-04-05T10:10:30;101080.19;;;9.71;41.90
64053;BME280;50299;49.524;8.536;2023-04-05T10:12:56;101084.25;;;9.18;37.82
64053;BME280;50299;49.524;8.536;2023-04-05T10:15:25;101081.94;;;9.80;33.07
64053;BME280;50299;49.524;8.536;2023-04-05T10:17:56;101089.47;;;9.61;44.79
64053;BME280;50299;49.524;8.536;2023-04-05T10:20:29;101086.94;;;9.51;39.55
64053;BME280;50299;49.524;8.536;2023-04-05T10:23:12;101083.66;;;9.62;37.50
64053;BME280;50299;49.524;8.536;2023-04-05T10:25:56;101082.19;;;9.24;37.01
64053;BME280;50299;49.524;8.536;2023-04-05T10:34:03;101070.03;;;9.66;34.59
64053;BME280;50299;49.524;8.536;2023-04-05T10:36:51;101069.16;;;9.84;41.83
64053;BME280;50299;49.524;8.536;2023-04-05T10:39:26;101072.28;;;10.05;47.08
64053;BME280;50299;49.524;8.536;2023-04-05T10:42:42;101062.84;;;10.20;41.56
64053;BME280;50299;49.524;8.536;2023-04-05T10:44:45;101061.69;;;10.21;29.83
64053;BME280;50299;49.524;8.536;2023-04-05T10:47:16;101051.16;;;9.18;27.83
64053;BME280;50299;49.524;8.536;2023-04-05T10:49:48;101062.78;;;8.50;44.76
64053;BME280;50299;49.524;8.536;2023-04-05T10:52:19;101055.34;;;8.69;34.94
64053;BME280;50299;49.524;8.536;2023-04-05T10:54:48;101051.53;;;8.98;42.20
64053;BME280;50299;49.524;8.536;2023-04-05T10:57:14;101053.59;;;9.06;38.17
64053;BME280;50299;49.524;8.536;2023-04-05T10:59:42;101049.00;;;9.15;34.37
64053;BME280;50299;49.524;8.536;2023-04-05T11:02:10;101045.03;;;9.35;35.34
64053;BME280;50299;49.524;8.536;2023-04-05T11:04:38;101049.00;;;9.43;32.08
64053;BME280;50299;49.524;8.536;2023-04-05T11:07:15;101040.22;;;9.27;46.48
64053;BME280;50299;49.524;8.536;2023-04-05T11:09:59;101051.13;;;9.46;35.74
64053;BME280;50299;49.524;8.536;2023-04-05T11:15:40;101045.00;;;9.90;34.82
64053;BME280;50299;49.524;8.536;2023-04-05T11:18:08;101032.28;;;10.03;42.11
64053;BME280;50299;49.524;8.536;2023-04-05T11:20:48;101035.47;;;9.96;31.92
64053;BME280;50299;49.524;8.536;2023-04-05T11:23:19;101029.41;;;10.08;33.98
64053;BME280;50299;49.524;8.536;2023-04-05T11:25:50;101030.69;;;10.24;37.12
64053;BME280;50299;49.524;8.536;2023-04-05T11:28:34;101021.47;;;10.29;38.84
64053;BME280;50299;49.524;8.536;2023-04-05T11:31:16;101032.75;;;10.41;33.60
64053;BME280;50299;49.524;8.536;2023-04-05T11:36:32;101024.50;;;10.27;40.48
64053;BME280;50299;49.524;8.536;2023-04-05T11:42:10;101013.47;;;10.27;29.28
64053;BME280;50299;49.524;8.536;2023-04-05T11:44:43;101011.38;;;9.74;31.99
64053;BME280;50299;49.524;8.536;2023-04-05T11:47:10;101004.44;;;8.61;28.43
64053;BME280;50299;49.524;8.536;2023-04-05T11:49:38;101002.88;;;8.88;39.28
64053;BME280;50299;49.524;8.536;2023-04-05T11:52:16;101006.63;;;8.65;29.50
64053;BME280;50299;49.524;8.536;2023-04-05T11:54:45;101008.34;;;8.60;33.10
64053;BME280;50299;49.524;8.536;2023-04-05T11:57:14;101000.66;;;8.57;28.74
64053;BME280;50299;49.524;8.536;2023-04-05T11:59:43;101007.88;;;8.39;33.39
64053;BME280;50299;49.524;8.536;2023-04-05T12:02:10;101005.22;;;7.97;28.89
64053;BME280;50299;49.524;8.536;2023-04-05T12:04:36;101000.06;;;8.09;25.87
64053;BME280;50299;49.524;8.536;2023-04-05T12:07:15;101001.34;;;7.36;33.42
64053;BME280;50299;49.524;8.536;2023-04-05T12:10:02;101000.75;;;7.63;44.54
64053;BME280;50299;49.524;8.536;2023-04-05T12:12:32;100991.44;;;8.16;28.78
64053;BME280;50299;49.524;8.536;2023-04-05T12:15:01;100992.13;;;7.88;31.24
64053;BME280;50299;49.524;8.536;2023-04-05T12:20:07;100977.38;;;8.50;44.12
64053;BME280;50299;49.524;8.536;2023-04-05T12:22:35;100970.63;;;9.02;38.83
64053;BME280;50299;49.524;8.536;2023-04-05T12:25:02;100971.84;;;9.37;34.29
64053;BME280;50299;49.524;8.536;2023-04-05T12:27:29;100968.25;;;9.51;38.80
64053;BME280;50299;49.524;8.536;2023-04-05T12:30:16;100958.50;;;9.81;34.58
64053;BME280;50299;49.524;8.536;2023-04-05T12:32:49;100973.25;;;9.76;29.50
64053;BME280;50299;49.524;8.536;2023-04-05T12:35:21;100963.81;;;9.77;29.51
64053;BME280;50299;49.524;8.536;2023-04-05T12:37:50;100961.41;;;9.48;30.17
64053;BME280;50299;49.524;8.536;2023-04-05T12:40:21;100968.53;;;9.77;42.11
64053;BME280;50299;49.524;8.536;2023-04-05T12:42:48;100968.75;;;10.25;27.57
64053;BME280;50299;49.524;8.536;2023-04-05T12:45:15;100959.59;;;9.30;30.62
64053;BME280;50299;49.524;8.536;2023-04-05T12:47:51;100957.31;;;9.59;39.43
64053;BME280;50299;49.524;8.536;2023-04-05T12:50:27;100962.34;;;10.39;32.21
64053;BME280;50299;49.524;8.536;2023-04-05T12:52:55;100951.91;;;10.35;33.31
64053;BME280;50299;49.524;8.536;2023-04-05T12:55:22;100945.09;;;10.64;28.61
64053;BME280;50299;49.524;8.536;2023-04-05T12:57:50;100942.44;;;10.81;37.00
64053;BME280;50299;49.524;8.536;2023-04-05T13:00:18;100944.75;;;10.88;28.09
64053;BME280;50299;49.524;8.536;2023-04-05T13:02:50;100943.91;;;10.25;28.33
64053;BME280;50299;49.524;8.536;2023-04-05T13:05:23;100939.66;;;10.28;32.78
64053;BME280;50299;49.524;8.536;2023-04-05T13:07:50;100941.44;;;10.77;32.80
64053;BME280;50299;49.524;8.536;2023-04-05T13:10:18;100939.94;;;10.71;31.69
64053;BME280;50299;49.524;8.536;2023-04-05T13:12:45;100929.19;;;10.39;39.63
64053;BME280;50299;49.524;8.536;2023-04-05T13:15:13;100936.47;;;10.97;47.93
64053;BME280;50299;49.524;8.536;2023-04-05T13:17:41;100929.09;;;11.32;32.74
64053;BME280;50299;49.524;8.536;2023-04-05T13:20:08;100919.19;;;11.57;41.10
64053;BME280;50299;49.524;8.536;2023-04-05T13:22:34;100923.75;;;11.62;38.68
64053;BME280;50299;49.524;8.536;2023-04-05T13:25:01;100921.69;;;11.84;41.49
64053;BME280;50299;49.524;8.536;2023-04-05T13:27:28;100911.72;;;12.09;31.79
64053;BME280;50299;49.524;8.536;2023-04-05T13:29:55;100915.97;;;11.90;33.22
64053;BME280;50299;49.524;8.536;2023-04-05T13:32:21;100903.59;;;11.87;35.33
64053;BME280;50299;49.524;8.536;2023-04-05T13:34:48;100909.28;;;11.65;25.70
64053;BME280;50299;49.524;8.536;2023-04-05T13:37:14;100913.16;;;11.46;32.67
64053;BME280;50299;49.524;8.536;2023-04-05T13:39:41;100907.78;;;11.50;25.48
64053;BME280;50299;49.524;8.536;2023-04-05T13:42:07;100903.22;;;11.45;27.58